createdAt,value
2023-05-08T00:04:52.242Z,101794.84
2023-05-08T00:09:55.327Z,101789.88
2023-05-08T00:14:58.113Z,101802.88
2023-05-08T00:20:01.144Z,101795.31
2023-05-08T00:25:06.727Z,101795.53
2023-05-08T00:30:10.093Z,101805.19
2023-05-08T00:35:12.876Z,101803.34
2023-05-08T00:40:15.947Z,101824.59
2023-05-08T00:45:18.709Z,101817.38
2023-05-08T00:50:21.509Z,101826.72
2023-05-08T00:55:25.273Z,101847.59
2023-05-08T01:00:28.468Z,101839.41
2023-05-08T01:05:32.409Z,101829.31
2023-05-08T01:10:53.529Z,101829.06
2023-05-08T01:16:20.739Z,101827.41
2023-05-08T01:21:49.245Z,101838.38
2023-05-08T01:27:17.118Z,101856.25
2023-05-08T01:32:24.547Z,101843.56
2023-05-08T01:37:43.908Z,101843.63
2023-05-08T01:43:08.577Z,101850.97
2023-05-08T01:48:17.440Z,101847.69
2023-05-08T01:53:34.233Z,101856.03
2023-05-08T01:58:38.628Z,101862.53
2023-05-08T02:03:43.630Z,101864.81
2023-05-08T02:08:46.567Z,101878.72
2023-05-08T02:13:50.336Z,101884.25
2023-05-08T02:18:55.876Z,101870.34
2023-05-08T02:23:59.721Z,101864.59
2023-05-08T02:29:04.242Z,101888.97
2023-05-08T02:34:09.662Z,101889.97
2023-05-08T02:39:15.634Z,101892.50
2023-05-08T02:44:19.002Z,101885.91
2023-05-08T02:49:32.568Z,101893.84
2023-05-08T02:54:44.611Z,101899.78
2023-05-08T03:00:05.604Z,101911.22
2023-05-08T03:05:19.886Z,101920.28
2023-05-08T03:10:29.942Z,101927.84
2023-05-08T03:15:45.950Z,101907.91
2023-05-08T03:20:54.760Z,101911.16
2023-05-08T03:25:59.707Z,101915.81
2023-05-08T03:31:05.653Z,101920.88
2023-05-08T03:36:08.961Z,101919.13
2023-05-08T03:41:13.147Z,101912.91
2023-05-08T03:46:17.951Z,101897.69
2023-05-08T03:51:23.123Z,101910.25
2023-05-08T03:56:28.830Z,101908.47
2023-05-08T04:01:49.256Z,101914.84
2023-05-08T04:07:18.939Z,101917.16
2023-05-08T04:12:38.981Z,101910.69
2023-05-08T04:17:46.016Z,101904.38
2023-05-08T04:22:53.545Z,101913.34
2023-05-08T04:27:59.140Z,101920.69
2023-05-08T04:33:06.426Z,101915.09
2023-05-08T04:38:10.292Z,101896.38
2023-05-08T04:43:13.353Z,101886.75
2023-05-08T04:48:16.200Z,101915.06
2023-05-08T04:53:19.095Z,101892.53
2023-05-08T04:58:21.939Z,101905.63
2023-05-08T05:03:25.246Z,101903.81
2023-05-08T05:08:28.303Z,101902.75
2023-05-08T05:13:32.692Z,101898.84
2023-05-08T05:18:36.005Z,101900.09
2023-05-08T05:23:39.645Z,101895.34
2023-05-08T05:28:42.629Z,101872.63
2023-05-08T05:33:46.006Z,101887.59
2023-05-08T05:38:49.021Z,101884.25
2023-05-08T05:43:52.015Z,101883.16
2023-05-08T05:48:55.353Z,101900.63
2023-05-08T05:53:58.411Z,101886.00
2023-05-08T05:59:02.197Z,101871.78
2023-05-08T06:04:05.489Z,101884.31
2023-05-08T06:09:09.522Z,101896.69
2023-05-08T06:14:12.283Z,101890.31
2023-05-08T06:19:15.666Z,101906.84
2023-05-08T06:24:18.716Z,101879.78
2023-05-08T06:29:22.319Z,101889.81
2023-05-08T06:34:25.088Z,101885.00
2023-05-08T06:39:28.052Z,101882.63
2023-05-08T06:44:30.732Z,101880.09
2023-05-08T06:49:33.551Z,101889.22
2023-05-08T06:54:36.379Z,101892.81
2023-05-08T06:59:39.211Z,101910.03
2023-05-08T07:04:42.016Z,101887.00
2023-05-08T07:09:44.814Z,101905.41
2023-05-08T07:14:47.453Z,101900.94
2023-05-08T07:19:51.508Z,101896.09
2023-05-08T07:24:54.514Z,101892.13
2023-05-08T07:30:05.095Z,101901.56
2023-05-08T07:35:11.679Z,101895.81
2023-05-08T07:40:14.249Z,101898.94
2023-05-08T07:45:17.077Z,101906.69
2023-05-08T07:50:20.933Z,101902.03
2023-05-08T07:55:23.896Z,101892.00
2023-05-08T08:00:30.128Z,101900.00
2023-05-08T08:05:33.226Z,101900.19
2023-05-08T08:10:36.536Z,101894.94
2023-05-08T08:15:40.433Z,101882.19
2023-05-08T08:20:43.237Z,101878.09
2023-05-08T08:25:48.318Z,101868.97
2023-05-08T08:30:51.379Z,101864.34
2023-05-08T08:35:54.207Z,101873.13
2023-05-08T08:40:57.019Z,101865.69
2023-05-08T08:46:01.176Z,101860.81
2023-05-08T08:51:14.346Z,101850.66
2023-05-08T08:56:17.488Z,101860.00
2023-05-08T09:01:22.313Z,101842.28
2023-05-08T09:06:27.911Z,101837.81
2023-05-08T09:11:31.950Z,101833.13
2023-05-08T09:16:34.976Z,101854.19
2023-05-08T09:21:37.877Z,101848.56
2023-05-08T09:26:42.452Z,101847.84
2023-05-08T09:31:47.446Z,101842.69
2023-05-08T09:36:50.532Z,101852.53
2023-05-08T09:42:01.062Z,101852.53
2023-05-08T09:47:30.207Z,101843.03
2023-05-08T09:52:35.194Z,101849.63
2023-05-08T09:57:41.661Z,101848.53
2023-05-08T10:03:05.455Z,101844.81
2023-05-08T10:08:21.554Z,101867.13
2023-05-08T10:13:26.462Z,101861.66
2023-05-08T10:18:36.286Z,101865.09
2023-05-08T10:23:40.456Z,101864.66
2023-05-08T10:29:09.104Z,101864.34
2023-05-08T10:35:01.646Z,101868.63
2023-05-08T10:40:06.711Z,101870.22
2023-05-08T10:45:09.949Z,101868.56
2023-05-08T10:50:22.100Z,101891.84
2023-05-08T10:55:31.309Z,101862.69
2023-05-08T11:00:54.304Z,101869.38
2023-05-08T11:05:58.345Z,101849.81
2023-05-08T11:11:12.257Z,101874.56
2023-05-08T11:16:15.189Z,101850.75
2023-05-08T11:21:24.446Z,101881.09
2023-05-08T11:26:42.885Z,101872.34
2023-05-08T11:31:53.130Z,101907.69
2023-05-08T11:37:03.335Z,101860.03
2023-05-08T11:42:24.959Z,101861.28
2023-05-08T11:47:37.961Z,101857.56
2023-05-08T11:52:43.580Z,101851.78
2023-05-08T11:57:46.564Z,101855.69
2023-05-08T12:02:49.406Z,101835.34
2023-05-08T12:07:52.580Z,101826.03
2023-05-08T12:12:55.336Z,101820.25
2023-05-08T12:18:04.216Z,101814.31
2023-05-08T12:23:07.470Z,101811.75
2023-05-08T12:28:10.973Z,101819.13
2023-05-08T12:33:14.645Z,101805.72
2023-05-08T12:38:17.435Z,101822.75
2023-05-08T12:43:20.161Z,101813.00
2023-05-08T12:48:24.281Z,101795.63
2023-05-08T12:53:30.938Z,101806.31
2023-05-08T12:58:35.167Z,101800.09
2023-05-08T13:03:38.905Z,101833.25
2023-05-08T13:08:42.256Z,101805.94
2023-05-08T13:13:45.058Z,101808.59
2023-05-08T13:18:47.868Z,101809.31
2023-05-08T13:23:50.668Z,101802.25
2023-05-08T13:28:56.520Z,101795.56
2023-05-08T13:33:59.552Z,101812.84
2023-05-08T13:39:02.548Z,101802.50
2023-05-08T13:44:06.908Z,101812.56
2023-05-08T13:49:09.492Z,101808.19
2023-05-08T13:54:12.491Z,101818.84
2023-05-08T13:59:16.427Z,101814.66
2023-05-08T14:04:19.473Z,101807.28
2023-05-08T14:09:22.139Z,101830.75
2023-05-08T14:14:25.243Z,101827.53
2023-05-08T14:19:28.178Z,101828.38
2023-05-08T14:24:31.105Z,101817.31
2023-05-08T14:29:34.740Z,101812.31
2023-05-08T14:34:37.432Z,101815.53
2023-05-08T14:39:40.084Z,101817.38
2023-05-08T14:44:43.748Z,101816.16
2023-05-08T14:49:46.479Z,101803.22
2023-05-08T14:54:53.733Z,101822.22
2023-05-08T14:59:57.141Z,101815.19
2023-05-08T15:05:00.055Z,101826.44
2023-05-08T15:10:04.267Z,101819.63
2023-05-08T15:15:10.433Z,101834.06
2023-05-08T15:20:13.217Z,101833.41
2023-05-08T15:25:16.629Z,101813.25
2023-05-08T15:30:20.735Z,101823.81
2023-05-08T15:35:24.153Z,101803.03
2023-05-08T15:40:26.961Z,101796.97
2023-05-08T15:45:29.625Z,101792.97
2023-05-08T15:50:32.759Z,101810.91
2023-05-08T15:55:35.385Z,101801.03
2023-05-08T16:00:44.862Z,101790.28
2023-05-08T16:05:48.506Z,101820.00
2023-05-08T16:10:51.540Z,101808.72
2023-05-08T16:15:54.693Z,101810.59
2023-05-08T16:20:57.502Z,101816.78
2023-05-08T16:26:00.558Z,101818.78
2023-05-08T16:31:05.142Z,101837.13
2023-05-08T16:36:11.732Z,101831.84
2023-05-08T16:41:14.763Z,101847.16
2023-05-08T16:46:29.151Z,101852.56
2023-05-08T16:51:33.240Z,101852.94
2023-05-08T16:56:36.574Z,101854.81
2023-05-08T17:01:39.288Z,101851.78
2023-05-08T17:06:41.978Z,101852.47
2023-05-08T17:11:47.848Z,101854.97
2023-05-08T17:16:50.779Z,101859.50
2023-05-08T17:21:54.203Z,101866.03
2023-05-08T17:26:57.451Z,101865.72
2023-05-08T17:32:00.057Z,101868.25
2023-05-08T17:37:03.865Z,101875.16
2023-05-08T17:42:10.182Z,101867.66
2023-05-08T17:47:14.537Z,101865.28
2023-05-08T17:52:17.732Z,101875.38
2023-05-08T17:57:20.617Z,101879.56
2023-05-08T18:02:26.426Z,101882.09
2023-05-08T18:07:31.157Z,101879.94
2023-05-08T18:12:33.954Z,101877.25
2023-05-08T18:17:37.204Z,101880.13
2023-05-08T18:22:40.074Z,101869.84
2023-05-08T18:27:43.468Z,101873.38
2023-05-08T18:32:46.573Z,101865.69
2023-05-08T18:37:49.381Z,101876.75
2023-05-08T18:42:52.419Z,101856.59
2023-05-08T18:47:57.848Z,101868.19
2023-05-08T18:53:00.681Z,101859.63
2023-05-08T18:58:06.310Z,101875.75
2023-05-08T19:03:08.902Z,101865.16
2023-05-08T19:08:13.383Z,101852.75
2023-05-08T19:13:16.265Z,101862.66
2023-05-08T19:18:19.104Z,101856.25
2023-05-08T19:23:22.068Z,101849.03
2023-05-08T19:28:24.716Z,101846.34
2023-05-08T19:33:27.507Z,101845.88
2023-05-08T19:38:30.887Z,101850.06
2023-05-08T19:43:34.767Z,101841.00
2023-05-08T19:48:38.166Z,101826.88
2023-05-08T19:53:41.111Z,101841.81
2023-05-08T19:58:43.848Z,101851.72
2023-05-08T20:03:47.360Z,101841.00
2023-05-08T20:08:51.164Z,101851.91
2023-05-08T20:13:53.744Z,101856.09
2023-05-08T20:18:56.310Z,101868.38
2023-05-08T20:23:59.731Z,101873.56
2023-05-08T20:29:03.938Z,101852.25
2023-05-08T20:34:08.887Z,101859.47
2023-05-08T20:39:14.529Z,101853.34
2023-05-08T20:44:19.427Z,101861.13
2023-05-08T20:49:22.075Z,101857.22
2023-05-08T20:54:25.187Z,101852.03
2023-05-08T20:59:28.315Z,101850.81
2023-05-08T21:04:31.648Z,101845.28
2023-05-08T21:09:34.450Z,101852.03
2023-05-08T21:14:37.780Z,101855.34
2023-05-08T21:19:40.662Z,101849.31
2023-05-08T21:24:46.044Z,101850.47
2023-05-08T21:29:48.912Z,101826.63
2023-05-08T21:34:51.941Z,101844.09
2023-05-08T21:39:54.718Z,101854.00
2023-05-08T21:44:59.295Z,101855.31
2023-05-08T21:50:02.201Z,101856.97
2023-05-08T21:55:08.877Z,101860.66
2023-05-08T22:00:12.679Z,101849.06
2023-05-08T22:05:24.730Z,101856.59
2023-05-08T22:10:27.372Z,101861.97
2023-05-08T22:15:30.904Z,101859.75
2023-05-08T22:20:34.319Z,101856.22
2023-05-08T22:25:37.422Z,101856.03
2023-05-08T22:30:40.074Z,101849.16
2023-05-08T22:35:42.766Z,101851.13
2023-05-08T22:40:48.021Z,101842.09
2023-05-08T22:45:50.910Z,101843.56
2023-05-08T22:50:54.039Z,101852.59
2023-05-08T22:55:56.558Z,101850.38
2023-05-08T23:00:59.926Z,101849.69
2023-05-08T23:06:02.794Z,101837.53
2023-05-08T23:11:05.402Z,101840.69
2023-05-08T23:16:08.252Z,101851.09
2023-05-08T23:21:11.064Z,101829.56
2023-05-08T23:26:13.948Z,101852.06
2023-05-08T23:31:18.624Z,101853.84
2023-05-08T23:36:22.198Z,101859.72
2023-05-08T23:41:26.364Z,101854.09
2023-05-08T23:46:29.153Z,101860.44
2023-05-08T23:51:32.460Z,101851.72
2023-05-08T23:56:35.204Z,101848.53
